Time;durP1;ratioP1;P1;durP2;ratioP2;P2;SDS_P1;SDS_P2;PMS_P1;PMS_P2;Temp;Humidity;BMP_temperature;BMP_pressure;BME280_temperature;BME280_humidity;BME280_pressure;Samples;Min_cycle;Max_cycle;Signal;HPM_P1;HPM_P2
2022/09/11 00:02:22;;;;;;;;;;;;;;;27.23;nan;101047.94;5053305;28;1270;-37
2022/09/11 00:04:49;;;;;;;;;;;;;;;27.26;nan;101050.34;5051958;28;1280;-39
2022/09/11 00:07:15;;;;;;;;;;;;;;;27.17;nan;101040.47;5053642;28;897;-42
2022/09/11 00:09:42;;;;;;;;;;;;;;;27.19;nan;101048.34;5053081;28;1971;-42
2022/09/11 00:12:09;;;;;;;;;;;;;;;27.20;nan;101048.22;5053427;28;1169;-40
2022/09/11 00:14:36;;;;;;;;;;;;;;;27.22;nan;101048.94;5053035;28;1197;-39
2022/09/11 00:17:02;;;;;;;;;;;;;;;27.25;nan;101048.66;5053520;28;1129;-39
2022/09/11 00:19:29;;;;;;;;;;;;;;;27.26;nan;101044.16;5052994;28;1204;-40
2022/09/11 00:21:56;;;;;;;;;;;;;;;27.21;nan;101051.75;5053371;28;910;-41
2022/09/11 00:24:23;;;;;;;;;;;;;;;27.19;nan;101049.19;5053306;28;1184;-42
2022/09/11 00:26:49;;;;;;;;;;;;;;;27.14;nan;101048.75;5052135;28;1078;-41
2022/09/11 00:29:16;;;;;;;;;;;;;;;27.19;nan;101048.34;5052802;28;1902;-42
2022/09/11 00:31:43;;;;;;;;;;;;;;;27.22;nan;101037.38;5053293;28;1028;-41
2022/09/11 00:34:10;;;;;;;;;;;;;;;27.19;nan;101033.16;5053137;28;1300;-39
2022/09/11 00:36:40;;;;;;;;;;;;;;;27.15;nan;101034.38;5053143;28;1013;-41
2022/09/11 00:39:07;;;;;;;;;;;;;;;27.11;nan;101027.63;5053013;28;1196;-39
2022/09/11 00:41:35;;;;;;;;;;;;;;;27.12;nan;101034.66;5053122;28;1039;-42
2022/09/11 00:44:06;;;;;;;;;;;;;;;27.19;nan;101035.81;5052846;28;1141;-40
2022/09/11 00:46:39;;;;;;;;;;;;;;;27.08;nan;101031.41;5053155;28;994;-41
2022/09/11 00:49:17;;;;;;;;;;;;;;;27.16;nan;101036.09;5052569;28;2233;-42
2022/09/11 00:51:46;;;;;;;;;;;;;;;27.21;nan;101030.34;5051677;28;1104;-42
2022/09/11 00:54:15;;;;;;;;;;;;;;;27.08;nan;101030.59;5052795;28;1277;-42
2022/09/11 00:56:42;;;;;;;;;;;;;;;26.79;nan;101029.53;5052980;28;1114;-40
2022/09/11 00:59:09;;;;;;;;;;;;;;;26.77;nan;101035.03;5052779;28;1204;-42
2022/09/11 01:01:36;;;;;;;;;;;;;;;26.71;nan;101034.72;5052845;28;1010;-40
2022/09/11 01:04:04;;;;;;;;;;;;;;;26.69;nan;101031.34;5052852;28;1287;-40
2022/09/11 01:06:31;;;;;;;;;;;;;;;26.70;nan;101025.00;5052731;28;1096;-42
2022/09/11 01:08:58;;;;;;;;;;;;;;;26.68;nan;101021.63;5052654;28;1895;-42
2022/09/11 01:11:29;;;;;;;;;;;;;;;26.69;nan;101017.97;5052646;28;1584;-42
2022/09/11 01:14:02;;;;;;;;;;;;;;;26.55;nan;101011.13;5052960;28;984;-42
2022/09/11 01:16:36;;;;;;;;;;;;;;;26.52;nan;101019.41;5054975;28;1028;-41
2022/09/11 01:19:23;;;;;;;;;;;;;;;26.59;nan;101013.44;5056485;28;1267;-40
2022/09/11 01:21:51;;;;;;;;;;;;;;;26.54;nan;101004.94;5056549;28;994;-41
2022/09/11 01:24:20;;;;;;;;;;;;;;;26.51;nan;101007.88;5056160;28;1282;-40
2022/09/11 01:27:05;;;;;;;;;;;;;;;26.48;nan;101002.78;5055797;28;1123;-41
2022/09/11 01:29:41;;;;;;;;;;;;;;;26.49;nan;100996.47;5056150;28;1969;-42
2022/09/11 01:32:11;;;;;;;;;;;;;;;26.46;nan;100993.22;5056455;28;916;-41
2022/09/11 01:34:45;;;;;;;;;;;;;;;26.49;nan;100995.63;5047736;28;1615;-40
2022/09/11 01:37:16;;;;;;;;;;;;;;;26.43;nan;101001.50;5037706;28;1100;-42
2022/09/11 01:39:48;;;;;;;;;;;;;;;26.45;nan;101004.88;5071080;28;1381;-39
2022/09/11 01:42:18;;;;;;;;;;;;;;;26.44;nan;101006.72;5043396;28;994;-43
2022/09/11 01:44:50;;;;;;;;;;;;;;;26.43;nan;100999.69;5035765;28;1205;-42
2022/09/11 01:47:18;;;;;;;;;;;;;;;26.54;nan;101004.09;5036367;28;1218;-43
2022/09/11 01:50:02;;;;;;;;;;;;;;;26.43;nan;101002.34;5035974;28;1898;-40
2022/09/11 01:52:32;;;;;;;;;;;;;;;26.52;nan;101001.56;5036283;28;1279;-41
2022/09/11 01:55:02;;;;;;;;;;;;;;;26.56;nan;100999.47;5036100;28;1348;-41
2022/09/11 01:57:40;;;;;;;;;;;;;;;26.59;nan;100997.41;5036133;28;1267;-40
2022/09/11 02:00:10;;;;;;;;;;;;;;;26.54;nan;101004.09;5035859;28;1206;-42
2022/09/11 02:02:39;;;;;;;;;;;;;;;26.45;nan;100997.72;5035784;28;1190;-43
2022/09/11 02:05:14;;;;;;;;;;;;;;;26.46;nan;100999.41;5035755;28;1186;-43
2022/09/11 02:07:45;;;;;;;;;;;;;;;26.45;nan;101000.38;5035669;28;1052;-40
2022/09/11 02:10:17;;;;;;;;;;;;;;;26.39;nan;101000.91;5035604;28;1906;-41
2022/09/11 02:12:48;;;;;;;;;;;;;;;26.32;nan;100996.22;5035312;28;1116;-41
2022/09/11 02:15:16;;;;;;;;;;;;;;;26.33;nan;100990.75;5035535;28;1363;-40
2022/09/11 02:18:08;;;;;;;;;;;;;;;26.27;nan;100996.59;5035420;28;1108;-41
2022/09/11 02:20:35;;;;;;;;;;;;;;;26.36;nan;100993.16;5041733;28;1209;-40
2022/09/11 02:23:02;;;;;;;;;;;;;;;26.29;nan;100983.13;5035400;28;1242;-41
2022/09/11 02:25:29;;;;;;;;;;;;;;;26.26;nan;100983.41;5035455;28;1202;-42
2022/09/11 02:27:55;;;;;;;;;;;;;;;26.26;nan;100984.25;5034492;28;905;-42
2022/09/11 02:30:22;;;;;;;;;;;;;;;26.29;nan;100984.00;5034731;28;1975;-42
2022/09/11 02:32:49;;;;;;;;;;;;;;;26.17;nan;100979.69;5033895;28;1196;-42
2022/09/11 02:35:15;;;;;;;;;;;;;;;26.14;nan;100989.75;5034743;28;1201;-41
2022/09/11 02:37:45;;;;;;;;;;;;;;;26.06;nan;100983.22;5035081;28;1147;-42
2022/09/11 02:40:26;;;;;;;;;;;;;;;26.07;nan;100979.59;5034907;28;1197;-41
2022/09/11 02:43:08;;;;;;;;;;;;;;;26.03;nan;100986.16;5035066;28;1022;-41
2022/09/11 02:45:53;;;;;;;;;;;;;;;25.92;nan;100986.22;5034673;28;1256;-41
2022/09/11 02:48:20;;;;;;;;;;;;;;;25.88;nan;100976.75;5034358;28;1184;-39
2022/09/11 02:50:46;;;;;;;;;;;;;;;25.87;nan;100974.22;5034572;28;1910;-41
2022/09/11 02:53:23;;;;;;;;;;;;;;;25.89;nan;100975.78;5034816;28;1050;-41
2022/09/11 02:55:50;;;;;;;;;;;;;;;25.86;nan;100969.84;5034492;28;1347;-43
2022/09/11 02:58:20;;;;;;;;;;;;;;;25.89;nan;100973.13;5034737;28;1026;-43
2022/09/11 03:00:47;;;;;;;;;;;;;;;25.87;nan;100961.72;5034258;28;1241;-42
2022/09/11 03:03:14;;;;;;;;;;;;;;;25.86;nan;100964.50;5034625;28;914;-41
2022/09/11 03:05:41;;;;;;;;;;;;;;;25.83;nan;100967.44;5034147;28;1154;-40
2022/09/11 03:08:08;;;;;;;;;;;;;;;25.73;nan;100958.50;5034486;28;954;-41
2022/09/11 03:10:37;;;;;;;;;;;;;;;25.70;nan;100959.59;5034205;28;1914;-39
2022/09/11 03:13:04;;;;;;;;;;;;;;;25.64;nan;100953.94;5034407;28;1023;-39
2022/09/11 03:15:30;;;;;;;;;;;;;;;25.66;nan;100962.63;5034437;28;1217;-41
2022/09/11 03:17:57;;;;;;;;;;;;;;;25.60;nan;100955.13;5034126;28;1038;-42
2022/09/11 03:20:24;;;;;;;;;;;;;;;25.63;nan;100952.22;5034258;28;1335;-42
2022/09/11 03:22:51;;;;;;;;;;;;;;;25.64;nan;100949.44;5034178;28;1324;-40
2022/09/11 03:25:17;;;;;;;;;;;;;;;25.67;nan;100948.34;5034087;28;1309;-41
2022/09/11 03:27:44;;;;;;;;;;;;;;;25.66;nan;100946.63;5033345;28;1036;-42
2022/09/11 03:30:11;;;;;;;;;;;;;;;25.64;nan;100949.44;5033908;28;1902;-41
2022/09/11 03:32:38;;;;;;;;;;;;;;;25.64;nan;100943.25;5033954;28;1116;-41
2022/09/11 03:35:05;;;;;;;;;;;;;;;25.68;nan;100944.72;5033601;28;1334;-42
2022/09/11 03:37:31;;;;;;;;;;;;;;;25.71;nan;100947.13;5033828;28;1433;-39
2022/09/11 03:40:00;;;;;;;;;;;;;;;25.70;nan;100940.06;5033357;28;1319;-40
2022/09/11 03:42:27;;;;;;;;;;;;;;;25.69;nan;100941.03;5033895;28;1021;-41
2022/09/11 03:44:53;;;;;;;;;;;;;;;25.70;nan;100932.94;5033727;28;1176;-39
2022/09/11 03:47:21;;;;;;;;;;;;;;;25.73;nan;100939.81;5033261;28;1339;-40
2022/09/11 03:49:47;;;;;;;;;;;;;;;25.73;nan;100929.16;5033785;28;1903;-42
2022/09/11 03:52:14;;;;;;;;;;;;;;;25.66;nan;100930.63;5033551;28;746;-41
2022/09/11 03:54:41;;;;;;;;;;;;;;;25.65;nan;100934.28;5048472;28;1595;-38
2022/09/11 03:57:08;;;;;;;;;;;;;;;25.65;nan;100928.94;5033148;28;824;-42
2022/09/11 03:59:35;;;;;;;;;;;;;;;25.66;nan;100935.97;5033409;28;1291;-42
2022/09/11 04:02:01;;;;;;;;;;;;;;;25.65;nan;100928.94;5033351;28;1256;-43
2022/09/11 04:04:28;;;;;;;;;;;;;;;25.70;nan;100929.41;5033281;28;1213;-41
2022/09/11 04:06:55;;;;;;;;;;;;;;;25.67;nan;100924.31;5033577;28;750;-42
2022/09/11 04:09:23;;;;;;;;;;;;;;;25.76;nan;100926.22;5033645;28;1201;-42
2022/09/11 04:11:49;;;;;;;;;;;;;;;25.72;nan;100925.63;5033146;28;1902;-41
2022/09/11 04:14:16;;;;;;;;;;;;;;;25.68;nan;100929.56;5033430;28;1229;-42
2022/09/11 04:16:43;;;;;;;;;;;;;;;25.69;nan;100933.03;5033481;28;721;-39
2022/09/11 04:19:11;;;;;;;;;;;;;;;25.65;nan;100935.13;5033102;28;1260;-40
2022/09/11 04:21:38;;;;;;;;;;;;;;;25.68;nan;100934.88;5033267;28;1133;-41
2022/09/11 04:24:04;;;;;;;;;;;;;;;25.68;nan;100940.22;5048464;28;1247;-40
2022/09/11 04:26:32;;;;;;;;;;;;;;;25.70;nan;100932.06;5033466;28;1258;-41
2022/09/11 04:28:59;;;;;;;;;;;;;;;25.73;nan;100939.81;5033274;28;870;-42
2022/09/11 04:31:26;;;;;;;;;;;;;;;25.79;nan;100942.84;5033282;28;1906;-38
2022/09/11 04:33:53;;;;;;;;;;;;;;;25.82;nan;100937.25;5032950;28;737;-41
2022/09/11 04:36:25;;;;;;;;;;;;;;;25.77;nan;100941.28;5040470;28;1720;-39
2022/09/11 04:38:54;;;;;;;;;;;;;;;25.69;nan;100941.03;5033671;28;761;-40
2022/09/11 04:41:20;;;;;;;;;;;;;;;25.77;nan;100939.44;5045434;28;1239;-41
2022/09/11 04:43:48;;;;;;;;;;;;;;;25.82;nan;100950.56;5032777;28;758;-43
2022/09/11 04:46:15;;;;;;;;;;;;;;;25.88;nan;100947.41;5033251;28;1339;-41
2022/09/11 04:48:46;;;;;;;;;;;;;;;25.94;nan;100948.69;5033009;28;1339;-43
2022/09/11 04:51:32;;;;;;;;;;;;;;;25.92;nan;100940.84;5035004;28;1914;-41
2022/09/11 04:53:59;;;;;;;;;;;;;;;25.93;nan;100942.50;5038981;28;1826;-40
2022/09/11 04:56:28;;;;;;;;;;;;;;;25.96;nan;100941.44;5052564;28;1335;-39
2022/09/11 04:58:56;;;;;;;;;;;;;;;25.99;nan;100944.66;5056554;28;738;-41
2022/09/11 05:01:23;;;;;;;;;;;;;;;26.01;nan;100952.56;5056838;28;1287;-42
2022/09/11 05:03:51;;;;;;;;;;;;;;;26.06;nan;100945.84;5054905;28;776;-40
2022/09/11 05:06:18;;;;;;;;;;;;;;;26.11;nan;100945.47;5036553;28;1284;-43
2022/09/11 05:08:45;;;;;;;;;;;;;;;26.02;nan;100939.06;5036721;28;1190;-43
2022/09/11 05:11:13;;;;;;;;;;;;;;;26.02;nan;100943.59;5036772;28;1906;-41
2022/09/11 05:13:40;;;;;;;;;;;;;;;26.00;nan;100942.84;5036687;28;828;-40
2022/09/11 05:16:10;;;;;;;;;;;;;;;26.03;nan;100951.44;5036706;28;1178;-42
2022/09/11 05:18:38;;;;;;;;;;;;;;;26.00;nan;100945.50;5036444;28;668;-38
2022/09/11 05:21:12;;;;;;;;;;;;;;;26.04;nan;100946.97;5036735;28;1300;-40
2022/09/11 05:23:40;;;;;;;;;;;;;;;26.04;nan;100950.47;5051515;28;863;-40
2022/09/11 05:26:12;;;;;;;;;;;;;;;26.04;nan;100944.28;5036656;28;1217;-42
2022/09/11 05:28:39;;;;;;;;;;;;;;;25.98;nan;100952.81;5036513;28;914;-41
2022/09/11 05:31:10;;;;;;;;;;;;;;;25.99;nan;100942.00;5036412;28;1910;-41
2022/09/11 05:33:37;;;;;;;;;;;;;;;26.03;nan;100951.44;5039371;28;1549;-42
2022/09/11 05:36:04;;;;;;;;;;;;;;;25.98;nan;100944.81;5048806;28;1236;-40
2022/09/11 05:38:31;;;;;;;;;;;;;;;25.95;nan;100947.72;5045188;28;800;-42
2022/09/11 05:40:57;;;;;;;;;;;;;;;26.03;nan;100948.78;5051201;28;1284;-42
2022/09/11 05:43:25;;;;;;;;;;;;;;;25.98;nan;100947.47;5055827;28;1102;-42
2022/09/11 05:45:56;;;;;;;;;;;;;;;26.05;nan;100948.66;5054546;28;1310;-40
2022/09/11 05:48:22;;;;;;;;;;;;;;;25.98;nan;100950.16;5055996;28;1716;-44
2022/09/11 05:50:53;;;;;;;;;;;;;;;26.04;nan;100952.28;5055833;28;1984;-39
2022/09/11 05:53:20;;;;;;;;;;;;;;;25.93;nan;100949.69;5055820;28;635;-39
2022/09/11 05:55:47;;;;;;;;;;;;;;;25.85;nan;100947.66;5054569;28;1199;-40
2022/09/11 05:58:16;;;;;;;;;;;;;;;25.81;nan;100935.53;5055613;28;749;-41
2022/09/11 06:00:45;;;;;;;;;;;;;;;25.74;nan;100946.88;5055922;28;1300;-41
2022/09/11 06:03:12;;;;;;;;;;;;;;;25.77;nan;100955.47;5054080;28;891;-40
2022/09/11 06:05:41;;;;;;;;;;;;;;;25.79;nan;100958.84;5055461;28;1272;-41
2022/09/11 06:08:08;;;;;;;;;;;;;;;25.92;nan;100948.84;5054454;28;1746;-42
2022/09/11 06:10:35;;;;;;;;;;;;;;;25.95;nan;100953.06;5048256;28;1906;-43
2022/09/11 06:13:02;;;;;;;;;;;;;;;25.83;nan;100954.09;5038229;28;1077;-41
2022/09/11 06:15:30;;;;;;;;;;;;;;;25.87;nan;100960.88;5050260;28;1321;-42
2022/09/11 06:18:12;;;;;;;;;;;;;;;25.87;nan;100959.03;5035270;28;720;-42
2022/09/11 06:20:39;;;;;;;;;;;;;;;25.91;nan;100956.97;5035151;28;1281;-42
2022/09/11 06:23:07;;;;;;;;;;;;;;;25.91;nan;100965.81;5035116;28;802;-42
2022/09/11 06:25:35;;;;;;;;;;;;;;;25.91;nan;100972.97;5035377;28;1296;-42
2022/09/11 06:28:02;;;;;;;;;;;;;;;25.86;nan;100975.19;5034220;28;992;-40
2022/09/11 06:30:29;;;;;;;;;;;;;;;25.77;nan;100975.97;5039994;28;1975;-40
2022/09/11 06:32:56;;;;;;;;;;;;;;;25.85;nan;100977.00;5070223;28;1372;-37
2022/09/11 06:35:23;;;;;;;;;;;;;;;25.86;nan;100976.03;5050150;28;1344;-40
2022/09/11 06:37:49;;;;;;;;;;;;;;;25.90;nan;100976.63;5052219;28;932;-40
2022/09/11 06:40:17;;;;;;;;;;;;;;;26.04;nan;100979.84;5054457;28;1252;-40
2022/09/11 06:42:44;;;;;;;;;;;;;;;26.15;nan;100975.41;5054820;28;890;-40
2022/09/11 06:45:11;;;;;;;;;;;;;;;26.02;nan;100970.28;5054571;28;1268;-39
2022/09/11 06:47:37;;;;;;;;;;;;;;;25.98;nan;100976.84;5054338;28;1420;-39
2022/09/11 06:50:05;;;;;;;;;;;;;;;26.06;nan;100977.88;5054390;28;1303;-38
2022/09/11 06:52:33;;;;;;;;;;;;;;;26.14;nan;100974.56;5054030;28;1894;-41
2022/09/11 06:55:01;;;;;;;;;;;;;;;26.02;nan;100975.63;5054354;28;1265;-40
2022/09/11 06:57:28;;;;;;;;;;;;;;;26.05;nan;100978.03;5054536;28;720;-40
2022/09/11 06:59:56;;;;;;;;;;;;;;;26.20;nan;100979.44;5053796;28;1268;-46
2022/09/11 07:02:24;;;;;;;;;;;;;;;26.38;nan;100977.88;5054475;28;993;-46
2022/09/11 07:04:52;;;;;;;;;;;;;;;26.48;nan;100973.41;5052875;28;1205;-47
2022/09/11 07:07:18;;;;;;;;;;;;;;;26.53;nan;100981.03;5054073;28;678;-46
2022/09/11 07:09:45;;;;;;;;;;;;;;;26.56;nan;100978.09;5052739;28;1296;-46
2022/09/11 07:12:12;;;;;;;;;;;;;;;26.59;nan;100980.50;5051013;28;1910;-46
2022/09/11 07:14:40;;;;;;;;;;;;;;;26.60;nan;100977.69;5052492;28;1316;-47
2022/09/11 07:17:07;;;;;;;;;;;;;;;26.67;nan;100977.16;5051879;28;1507;-47
2022/09/11 07:19:34;;;;;;;;;;;;;;;26.68;nan;100979.72;5052835;28;1304;-46
2022/09/11 07:22:01;;;;;;;;;;;;;;;26.70;nan;100977.75;5053006;28;827;-46
2022/09/11 07:24:28;;;;;;;;;;;;;;;26.74;nan;100981.00;5053491;28;1172;-45
2022/09/11 07:26:54;;;;;;;;;;;;;;;26.73;nan;100982.81;5053243;28;886;-46
2022/09/11 07:29:21;;;;;;;;;;;;;;;26.75;nan;100974.69;5054079;28;1192;-46
2022/09/11 07:31:49;;;;;;;;;;;;;;;26.77;nan;100983.41;5053972;28;1902;-47
2022/09/11 07:34:15;;;;;;;;;;;;;;;26.76;nan;100979.03;5053585;28;1284;-46
2022/09/11 07:36:43;;;;;;;;;;;;;;;26.76;nan;100976.34;5053660;28;1091;-36
2022/09/11 07:39:10;;;;;;;;;;;;;;;26.75;nan;100977.38;5053690;28;1230;-36
2022/09/11 07:41:36;;;;;;;;;;;;;;;26.76;nan;100982.56;5054315;28;1062;-35
2022/09/11 07:44:05;;;;;;;;;;;;;;;26.76;nan;100982.56;5053758;28;1106;-38
2022/09/11 07:46:32;;;;;;;;;;;;;;;26.78;nan;100979.78;5052840;28;1070;-36
2022/09/11 07:49:00;;;;;;;;;;;;;;;26.80;nan;100980.50;5053828;28;1167;-35
2022/09/11 07:51:30;;;;;;;;;;;;;;;26.79;nan;100984.13;5053997;28;1906;-35
2022/09/11 07:53:58;;;;;;;;;;;;;;;26.82;nan;100981.22;5054004;28;1128;-34
2022/09/11 07:56:26;;;;;;;;;;;;;;;26.83;nan;100977.56;5053915;28;1390;-35
2022/09/11 07:58:56;;;;;;;;;;;;;;;26.83;nan;100975.75;5053791;28;882;-36
2022/09/11 08:01:28;;;;;;;;;;;;;;;26.85;nan;100981.78;5053961;28;1278;-36
2022/09/11 08:03:57;;;;;;;;;;;;;;;26.84;nan;100989.97;5052656;28;934;-35
2022/09/11 08:06:25;;;;;;;;;;;;;;;26.88;nan;100996.69;5053826;28;1291;-35
2022/09/11 08:08:54;;;;;;;;;;;;;;;26.89;nan;100995.75;5053210;28;785;-35
2022/09/11 08:11:20;;;;;;;;;;;;;;;26.89;nan;100990.38;5053433;28;1983;-36
2022/09/11 08:13:49;;;;;;;;;;;;;;;26.88;nan;100989.53;5053398;28;887;-35
2022/09/11 08:16:17;;;;;;;;;;;;;;;26.88;nan;100994.03;5053145;28;1203;-35
2022/09/11 08:18:44;;;;;;;;;;;;;;;26.88;nan;101002.91;5053518;28;882;-37
2022/09/11 08:21:11;;;;;;;;;;;;;;;26.87;nan;101003.06;5053606;28;1217;-37
2022/09/11 08:23:39;;;;;;;;;;;;;;;26.90;nan;101008.13;5053539;28;827;-36
2022/09/11 08:26:07;;;;;;;;;;;;;;;26.88;nan;101010.91;5052397;28;1213;-36
2022/09/11 08:28:35;;;;;;;;;;;;;;;26.89;nan;101014.44;5053142;28;902;-34
2022/09/11 08:31:03;;;;;;;;;;;;;;;26.87;nan;101006.53;5053122;28;1938;-36
2022/09/11 08:33:30;;;;;;;;;;;;;;;26.88;nan;101010.06;5052489;28;863;-36
2022/09/11 08:35:57;;;;;;;;;;;;;;;26.88;nan;101007.41;5052703;28;1300;-35
2022/09/11 08:38:24;;;;;;;;;;;;;;;26.90;nan;101010.81;5052690;28;1059;-35
2022/09/11 08:40:53;;;;;;;;;;;;;;;26.90;nan;101016.97;5053070;28;1221;-35
2022/09/11 08:43:32;;;;;;;;;;;;;;;26.92;nan;101014.19;5053018;28;906;-36
2022/09/11 08:46:03;;;;;;;;;;;;;;;26.93;nan;101014.03;5053101;28;1373;-34
2022/09/11 08:48:56;;;;;;;;;;;;;;;26.93;nan;101016.69;5052878;28;1615;-36
2022/09/11 08:51:24;;;;;;;;;;;;;;;26.92;nan;101016.84;5044157;28;1918;-36
2022/09/11 08:53:53;;;;;;;;;;;;;;;26.94;nan;101025.56;5053191;28;925;-36
2022/09/11 08:56:21;;;;;;;;;;;;;;;26.94;nan;101022.91;5051878;28;1309;-35
2022/09/11 08:59:07;;;;;;;;;;;;;;;26.93;nan;101027.41;5052867;28;1011;-36
2022/09/11 09:01:52;;;;;;;;;;;;;;;26.92;nan;101024.88;5053263;28;1212;-36
2022/09/11 09:04:20;;;;;;;;;;;;;;;26.92;nan;101031.06;5052948;28;1221;-36
2022/09/11 09:07:06;;;;;;;;;;;;;;;26.92;nan;101025.72;5052784;28;944;-36
2022/09/11 09:09:41;;;;;;;;;;;;;;;26.91;nan;101028.50;5052666;28;1394;-37
2022/09/11 09:12:17;;;;;;;;;;;;;;;26.91;nan;101034.72;5051455;28;2214;-34
2022/09/11 09:14:56;;;;;;;;;;;;;;;26.93;nan;101042.63;5052189;28;1268;-35
2022/09/11 09:17:48;;;;;;;;;;;;;;;26.92;nan;101040.91;5052278;28;632;-34
2022/09/11 09:20:19;;;;;;;;;;;;;;;26.93;nan;101048.78;5048536;28;1523;-36
2022/09/11 09:22:49;;;;;;;;;;;;;;;26.93;nan;101054.13;5052765;28;842;-36
2022/09/11 09:25:20;;;;;;;;;;;;;;;26.93;nan;101047.97;5052623;28;1209;-35
2022/09/11 09:27:48;;;;;;;;;;;;;;;26.93;nan;101054.13;5051622;28;684;-37
2022/09/11 09:30:20;;;;;;;;;;;;;;;26.92;nan;101049.78;5052089;28;1225;-35
2022/09/11 09:33:10;;;;;;;;;;;;;;;26.91;nan;101050.75;5052003;28;1967;-35
2022/09/11 09:35:43;;;;;;;;;;;;;;;26.92;nan;101057.81;5049607;28;1694;-37
2022/09/11 09:38:14;;;;;;;;;;;;;;;26.94;nan;101052.31;5055088;28;742;-36
2022/09/11 09:41:10;;;;;;;;;;;;;;;26.92;nan;101046.25;5056252;28;1280;-35
2022/09/11 09:43:43;;;;;;;;;;;;;;;26.93;nan;101048.78;5054733;28;1424;-37
2022/09/11 09:46:10;;;;;;;;;;;;;;;26.94;nan;101044.28;5056162;28;1206;-36
2022/09/11 09:48:38;;;;;;;;;;;;;;;26.94;nan;101049.63;5055332;28;1092;-34
2022/09/11 09:51:05;;;;;;;;;;;;;;;26.95;nan;101043.31;5055737;28;1242;-35
2022/09/11 09:53:32;;;;;;;;;;;;;;;26.95;nan;101043.31;5055363;28;896;-35
2022/09/11 09:55:59;;;;;;;;;;;;;;;26.93;nan;101050.63;5055635;28;1300;-35
2022/09/11 09:58:29;;;;;;;;;;;;;;;26.93;nan;101048.78;5055544;28;857;-35
2022/09/11 10:00:55;;;;;;;;;;;;;;;26.92;nan;101044.44;5055349;28;1213;-36
2022/09/11 10:03:23;;;;;;;;;;;;;;;26.94;nan;101038.94;5055279;28;1075;-35
2022/09/11 10:05:53;;;;;;;;;;;;;;;26.94;nan;101033.59;5055563;28;1484;-35
2022/09/11 10:08:25;;;;;;;;;;;;;;;26.93;nan;101035.41;5055796;28;674;-38
2022/09/11 10:10:56;;;;;;;;;;;;;;;26.94;nan;101039.78;5055386;28;1303;-36
2022/09/11 10:13:26;;;;;;;;;;;;;;;26.93;nan;101038.09;5055165;28;1977;-36
2022/09/11 10:16:00;;;;;;;;;;;;;;;26.93;nan;101045.28;5055565;28;1348;-35
2022/09/11 10:18:29;;;;;;;;;;;;;;;26.93;nan;101032.75;5055472;28;851;-38
2022/09/11 10:21:12;;;;;;;;;;;;;;;26.95;nan;101029.94;5055276;28;1300;-34
2022/09/11 10:23:49;;;;;;;;;;;;;;;26.96;nan;101028.97;5054940;28;743;-36
2022/09/11 10:26:19;;;;;;;;;;;;;;;27.02;nan;101025.78;5054945;28;1272;-35
2022/09/11 10:28:46;;;;;;;;;;;;;;;27.02;nan;101031.94;5054538;28;735;-36
2022/09/11 10:31:15;;;;;;;;;;;;;;;27.00;nan;101033.06;5055140;28;1276;-38
2022/09/11 10:34:00;;;;;;;;;;;;;;;27.02;nan;101031.13;5054590;28;870;-35
2022/09/11 10:36:27;;;;;;;;;;;;;;;27.01;nan;101032.94;5054876;28;1328;-35
2022/09/11 10:38:56;;;;;;;;;;;;;;;27.02;nan;101036.47;5054595;28;770;-34
2022/09/11 10:41:25;;;;;;;;;;;;;;;27.00;nan;101028.56;5054640;28;1306;-34
2022/09/11 10:43:59;;;;;;;;;;;;;;;27.00;nan;101027.72;5054510;28;872;-35
2022/09/11 10:46:27;;;;;;;;;;;;;;;27.02;nan;101031.13;5054384;28;1634;-35
2022/09/11 10:49:03;;;;;;;;;;;;;;;27.04;nan;101029.16;5053496;28;1485;-35
2022/09/11 10:51:32;;;;;;;;;;;;;;;27.04;nan;101029.16;5054950;28;1977;-35
2022/09/11 10:54:07;;;;;;;;;;;;;;;27.06;nan;101033.38;5054316;28;861;-37
2022/09/11 10:56:37;;;;;;;;;;;;;;;27.04;nan;101027.31;5054984;28;1253;-36
2022/09/11 10:59:09;;;;;;;;;;;;;;;27.03;nan;101024.78;5054612;28;1351;-35
2022/09/11 11:01:36;;;;;;;;;;;;;;;27.06;nan;101030.69;5054499;28;1186;-35
2022/09/11 11:04:03;;;;;;;;;;;;;;;27.06;nan;101021.81;5054607;28;1259;-36
2022/09/11 11:06:38;;;;;;;;;;;;;;;27.07;nan;101023.53;5054541;28;1154;-36
2022/09/11 11:09:12;;;;;;;;;;;;;;;27.08;nan;101025.22;5054421;28;1233;-36
2022/09/11 11:11:49;;;;;;;;;;;;;;;27.10;nan;101028.59;5054759;28;1984;-34
2022/09/11 11:14:36;;;;;;;;;;;;;;;27.11;nan;101033.00;5054166;28;1287;-35
2022/09/11 11:17:03;;;;;;;;;;;;;;;27.09;nan;101037.59;5054218;28;1169;-34
2022/09/11 11:19:37;;;;;;;;;;;;;;;27.07;nan;101034.22;5052750;28;1293;-34
2022/09/11 11:22:07;;;;;;;;;;;;;;;27.08;nan;101035.94;5054104;28;1225;-36
2022/09/11 11:24:57;;;;;;;;;;;;;;;27.08;nan;101030.59;5053947;28;1217;-34
2022/09/11 11:27:45;;;;;;;;;;;;;;;27.11;nan;101041.00;5053682;28;644;-36
2022/09/11 11:30:16;;;;;;;;;;;;;;;27.13;nan;101033.69;5049973;28;1268;-36
2022/09/11 11:32:49;;;;;;;;;;;;;;;27.17;nan;101032.44;5053401;28;1963;-36
2022/09/11 11:35:19;;;;;;;;;;;;;;;27.16;nan;101033.41;5053417;28;1201;-36
2022/09/11 11:37:47;;;;;;;;;;;;;;;27.18;nan;101031.44;5052567;28;632;-36
2022/09/11 11:40:35;;;;;;;;;;;;;;;27.19;nan;101027.81;5053588;28;1213;-36
2022/09/11 11:43:04;;;;;;;;;;;;;;;27.20;nan;101025.97;5053100;28;847;-35
2022/09/11 11:45:34;;;;;;;;;;;;;;;27.20;nan;101020.63;5052236;28;1268;-35
2022/09/11 11:48:07;;;;;;;;;;;;;;;27.22;nan;101022.19;5053490;28;1196;-37
2022/09/11 11:50:40;;;;;;;;;;;;;;;27.20;nan;101007.25;5053385;28;1335;-35
2022/09/11 11:53:19;;;;;;;;;;;;;;;27.20;nan;101004.59;5053524;28;1906;-36
2022/09/11 11:55:51;;;;;;;;;;;;;;;27.24;nan;101003.34;5052714;28;1421;-35
2022/09/11 11:58:35;;;;;;;;;;;;;;;27.24;nan;101004.16;5053268;28;746;-35
2022/09/11 12:01:04;;;;;;;;;;;;;;;27.22;nan;101000.78;5053104;28;1297;-35
2022/09/11 12:03:39;;;;;;;;;;;;;;;27.19;nan;101006.41;5053185;28;1439;-35
2022/09/11 12:06:07;;;;;;;;;;;;;;;27.15;nan;100994.28;5053230;28;1398;-34
2022/09/11 12:08:52;;;;;;;;;;;;;;;27.14;nan;101000.63;5053183;28;890;-35
2022/09/11 12:11:25;;;;;;;;;;;;;;;27.17;nan;100992.34;5053578;28;1304;-36
2022/09/11 12:13:52;;;;;;;;;;;;;;;27.14;nan;100988.13;5053036;28;1969;-36
2022/09/11 12:16:32;;;;;;;;;;;;;;;27.16;nan;100990.63;5053008;28;1209;-35
2022/09/11 12:19:06;;;;;;;;;;;;;;;27.20;nan;100983.19;5051551;28;731;-35
2022/09/11 12:21:35;;;;;;;;;;;;;;;27.22;nan;100981.22;5053300;28;1266;-35
2022/09/11 12:24:01;;;;;;;;;;;;;;;27.20;nan;100977.84;5053172;28;933;-36
2022/09/11 12:26:32;;;;;;;;;;;;;;;27.21;nan;100975.00;5052732;28;1231;-35
2022/09/11 12:29:14;;;;;;;;;;;;;;;27.21;nan;100977.69;5052493;28;699;-35
2022/09/11 12:31:50;;;;;;;;;;;;;;;27.21;nan;100972.34;5052661;28;889;-36
2022/09/11 12:34:18;;;;;;;;;;;;;;;27.23;nan;100965.03;5052221;28;1291;-35
2022/09/11 12:36:58;;;;;;;;;;;;;;;27.26;nan;100970.13;5051214;28;840;-34
2022/09/11 12:39:38;;;;;;;;;;;;;;;27.26;nan;100966.59;5052736;28;1668;-35
2022/09/11 12:42:21;;;;;;;;;;;;;;;27.21;nan;100960.81;5052705;28;695;-36
2022/09/11 12:44:48;;;;;;;;;;;;;;;27.20;nan;100959.97;5053060;28;1224;-35
2022/09/11 12:47:27;;;;;;;;;;;;;;;27.18;nan;100951.22;5052648;28;722;-35
2022/09/11 12:50:03;;;;;;;;;;;;;;;27.18;nan;100945.88;5052905;28;1315;-35
2022/09/11 12:52:39;;;;;;;;;;;;;;;27.19;nan;100949.41;5051636;28;1977;-35
2022/09/11 12:55:22;;;;;;;;;;;;;;;27.19;nan;100944.06;5052555;28;1268;-36
2022/09/11 12:57:50;;;;;;;;;;;;;;;27.18;nan;100942.38;5052636;28;663;-36
2022/09/11 13:00:22;;;;;;;;;;;;;;;27.19;nan;100938.69;5052682;28;1223;-36
2022/09/11 13:02:54;;;;;;;;;;;;;;;27.19;nan;100936.88;5052414;28;742;-35
2022/09/11 13:05:25;;;;;;;;;;;;;;;27.18;nan;100935.19;5052696;28;1221;-34
2022/09/11 13:07:53;;;;;;;;;;;;;;;27.20;nan;100933.22;5052361;28;631;-35
2022/09/11 13:10:29;;;;;;;;;;;;;;;27.25;nan;100930.97;5052297;28;1302;-36
2022/09/11 13:12:57;;;;;;;;;;;;;;;27.26;nan;100921.97;5070558;28;1971;-36
2022/09/11 13:15:35;;;;;;;;;;;;;;;27.28;nan;100928.03;5056233;28;1312;-35
2022/09/11 13:18:20;;;;;;;;;;;;;;;27.31;nan;100926.91;5056355;28;705;-35
2022/09/11 13:21:19;;;;;;;;;;;;;;;27.27;nan;100923.66;5056474;28;1213;-35
2022/09/11 13:23:51;;;;;;;;;;;;;;;27.25;nan;100925.63;5044554;28;1027;-35
2022/09/11 13:26:20;;;;;;;;;;;;;;;27.28;nan;100924.50;5055820;28;1227;-34
2022/09/11 13:28:50;;;;;;;;;;;;;;;27.28;nan;100922.69;5055397;28;691;-35